createdAt,value
2022-10-05T00:01:02.818Z,100.00
2022-10-05T00:03:37.214Z,100.00
2022-10-05T00:06:06.035Z,100.00
2022-10-05T00:08:35.607Z,100.00
2022-10-05T00:11:04.045Z,100.00
2022-10-05T00:13:32.619Z,100.00
2022-10-05T00:16:09.346Z,100.00
2022-10-05T00:18:38.132Z,100.00
2022-10-05T00:21:16.559Z,100.00
2022-10-05T00:23:44.759Z,100.00
2022-10-05T00:26:20.790Z,100.00
2022-10-05T00:28:49.059Z,100.00
2022-10-05T00:31:21.958Z,100.00
2022-10-05T00:33:50.919Z,100.00
2022-10-05T00:36:19.537Z,100.00
2022-10-05T00:38:47.879Z,100.00
2022-10-05T00:41:19.878Z,100.00
2022-10-05T00:44:30.619Z,100.00
2022-10-05T00:47:07.846Z,100.00
2022-10-05T00:49:50.116Z,100.00
2022-10-05T00:52:25.763Z,100.00
2022-10-05T00:55:01.444Z,100.00
2022-10-05T00:57:37.725Z,100.00
2022-10-05T01:00:07.947Z,100.00
2022-10-05T01:02:47.712Z,100.00
2022-10-05T01:05:22.336Z,100.00
2022-10-05T01:07:56.201Z,100.00
2022-10-05T01:10:28.705Z,100.00
2022-10-05T01:13:03.578Z,100.00
2022-10-05T01:15:35.875Z,100.00
2022-10-05T01:18:11.817Z,100.00
2022-10-05T01:20:54.421Z,100.00
2022-10-05T01:23:58.995Z,100.00
2022-10-05T01:26:39.984Z,100.00
2022-10-05T01:29:15.476Z,100.00
2022-10-05T01:31:47.282Z,100.00
2022-10-05T01:34:24.189Z,100.00
2022-10-05T01:36:58.031Z,100.00
2022-10-05T01:39:32.508Z,100.00
2022-10-05T01:42:05.940Z,100.00
2022-10-05T01:44:40.825Z,100.00
2022-10-05T01:47:11.259Z,100.00
2022-10-05T01:49:45.985Z,100.00
2022-10-05T01:52:24.943Z,100.00
2022-10-05T01:55:01.692Z,100.00
2022-10-05T01:57:38.518Z,100.00
2022-10-05T02:00:10.253Z,100.00
2022-10-05T02:02:41.286Z,100.00
2022-10-05T02:05:12.536Z,100.00
2022-10-05T02:07:43.691Z,100.00
2022-10-05T02:10:19.251Z,100.00
2022-10-05T02:12:48.253Z,100.00
2022-10-05T02:15:21.982Z,100.00
2022-10-05T02:17:52.351Z,100.00
2022-10-05T02:20:24.630Z,100.00
2022-10-05T02:22:54.812Z,100.00
2022-10-05T02:25:24.833Z,100.00
2022-10-05T02:27:56.077Z,100.00
2022-10-05T02:30:25.718Z,100.00
2022-10-05T02:32:56.563Z,100.00
2022-10-05T02:35:24.857Z,100.00
2022-10-05T02:38:01.349Z,100.00
2022-10-05T02:40:40.777Z,100.00
2022-10-05T02:43:19.398Z,100.00
2022-10-05T02:45:54.449Z,100.00
2022-10-05T02:48:30.538Z,100.00
2022-10-05T02:51:03.220Z,100.00
2022-10-05T02:53:37.005Z,100.00
2022-10-05T02:56:14.806Z,100.00
2022-10-05T02:58:47.167Z,100.00
2022-10-05T03:01:22.051Z,100.00
2022-10-05T03:03:55.171Z,100.00
2022-10-05T03:06:27.040Z,100.00
2022-10-05T03:09:01.367Z,100.00
2022-10-05T03:11:36.692Z,100.00
2022-10-05T03:14:09.190Z,100.00
2022-10-05T03:16:49.062Z,100.00
2022-10-05T03:19:26.931Z,100.00
2022-10-05T03:22:00.275Z,100.00
2022-10-05T03:24:40.254Z,100.00
2022-10-05T03:27:15.321Z,100.00
2022-10-05T03:29:49.758Z,100.00
2022-10-05T03:32:26.935Z,100.00
2022-10-05T03:34:58.305Z,100.00
2022-10-05T03:37:30.612Z,100.00
2022-10-05T03:40:04.110Z,100.00
2022-10-05T03:42:38.365Z,100.00
2022-10-05T03:45:10.650Z,100.00
2022-10-05T03:47:46.411Z,100.00
2022-10-05T03:50:32.715Z,100.00
2022-10-05T03:53:03.347Z,100.00
2022-10-05T03:55:32.312Z,100.00
2022-10-05T03:58:04.869Z,100.00
2022-10-05T04:00:33.414Z,100.00
2022-10-05T04:03:05.633Z,100.00
2022-10-05T04:05:37.680Z,100.00
2022-10-05T04:08:08.158Z,100.00
2022-10-05T04:10:40.877Z,100.00
2022-10-05T04:13:14.196Z,100.00
2022-10-05T04:15:44.619Z,100.00
2022-10-05T04:18:22.295Z,100.00
2022-10-05T04:20:53.138Z,100.00
2022-10-05T04:23:27.897Z,100.00
2022-10-05T04:25:58.822Z,100.00
2022-10-05T04:28:32.425Z,100.00
2022-10-05T04:31:01.450Z,100.00
2022-10-05T04:33:32.988Z,100.00
2022-10-05T04:36:12.435Z,100.00
2022-10-05T04:38:50.056Z,100.00
2022-10-05T04:41:30.179Z,100.00
2022-10-05T04:44:13.754Z,100.00
2022-10-05T04:47:00.341Z,100.00
2022-10-05T04:49:50.004Z,100.00
2022-10-05T04:52:24.385Z,100.00
2022-10-05T04:55:03.891Z,100.00
2022-10-05T04:57:40.092Z,100.00
2022-10-05T05:00:21.768Z,100.00
2022-10-05T05:03:02.759Z,100.00
2022-10-05T05:05:53.137Z,100.00
2022-10-05T05:08:36.894Z,100.00
2022-10-05T05:11:16.181Z,100.00
2022-10-05T05:14:08.399Z,100.00
2022-10-05T05:16:38.831Z,100.00
2022-10-05T05:19:29.489Z,100.00
2022-10-05T05:22:03.351Z,100.00
2022-10-05T05:24:41.024Z,100.00
2022-10-05T05:27:25.854Z,100.00
2022-10-05T05:30:03.813Z,100.00
2022-10-05T05:32:40.883Z,100.00
2022-10-05T05:35:35.943Z,100.00
2022-10-05T05:38:15.275Z,100.00
2022-10-05T05:40:49.399Z,100.00
2022-10-05T05:43:25.279Z,100.00
2022-10-05T05:45:59.814Z,100.00
2022-10-05T05:48:33.762Z,100.00
2022-10-05T05:51:05.739Z,100.00
2022-10-05T05:53:36.716Z,100.00
2022-10-05T05:56:09.506Z,100.00
2022-10-05T05:58:42.171Z,100.00
2022-10-05T06:01:31.723Z,100.00
2022-10-05T06:04:04.813Z,100.00
2022-10-05T06:06:35.207Z,100.00
2022-10-05T06:09:06.497Z,100.00
2022-10-05T06:11:39.471Z,100.00
2022-10-05T06:14:14.037Z,100.00
2022-10-05T06:16:46.430Z,100.00
2022-10-05T06:19:17.231Z,100.00
2022-10-05T06:21:47.706Z,100.00
2022-10-05T06:24:21.114Z,100.00
2022-10-05T06:27:21.610Z,100.00
2022-10-05T06:30:02.067Z,100.00
2022-10-05T06:32:32.155Z,100.00
2022-10-05T06:35:09.243Z,100.00
2022-10-05T06:37:58.150Z,100.00
2022-10-05T06:40:39.633Z,100.00
2022-10-05T06:43:19.420Z,100.00
2022-10-05T06:45:59.247Z,100.00
2022-10-05T06:48:36.458Z,100.00
2022-10-05T06:51:10.925Z,100.00
2022-10-05T06:53:42.157Z,100.00
2022-10-05T06:56:15.111Z,100.00
2022-10-05T06:58:52.322Z,100.00
2022-10-05T07:01:30.565Z,100.00
2022-10-05T07:04:11.070Z,100.00
2022-10-05T07:06:41.940Z,100.00
2022-10-05T07:09:25.576Z,100.00
2022-10-05T07:12:30.872Z,100.00
2022-10-05T07:15:23.989Z,100.00
2022-10-05T07:18:02.672Z,100.00
2022-10-05T07:20:33.737Z,100.00
2022-10-05T07:23:19.818Z,100.00
2022-10-05T07:25:51.481Z,100.00
2022-10-05T07:28:29.587Z,100.00
2022-10-05T07:31:01.921Z,100.00
2022-10-05T07:33:33.265Z,100.00
2022-10-05T07:36:23.292Z,100.00
2022-10-05T07:38:56.339Z,100.00
2022-10-05T07:41:32.197Z,100.00
2022-10-05T07:44:13.041Z,100.00
2022-10-05T07:46:51.556Z,100.00
2022-10-05T07:49:27.983Z,100.00
2022-10-05T07:51:59.614Z,100.00
2022-10-05T07:54:35.722Z,100.00
2022-10-05T07:57:10.833Z,100.00
2022-10-05T07:59:45.610Z,100.00
2022-10-05T08:02:20.184Z,100.00
2022-10-05T08:04:53.198Z,100.00
2022-10-05T08:07:21.443Z,100.00
2022-10-05T08:09:53.277Z,100.00
2022-10-05T08:12:28.644Z,92.82
2022-10-05T08:14:59.517Z,100.00
2022-10-05T08:17:35.053Z,100.00
2022-10-05T08:20:17.561Z,85.65
2022-10-05T08:22:48.821Z,100.00
2022-10-05T08:25:23.559Z,100.00
2022-10-05T08:27:54.345Z,93.13
2022-10-05T08:30:24.447Z,100.00
2022-10-05T08:32:57.076Z,89.74
2022-10-05T08:35:29.877Z,79.36
2022-10-05T08:37:58.221Z,86.32
2022-10-05T08:40:52.369Z,82.14
2022-10-05T08:43:37.539Z,85.43
2022-10-05T08:46:31.661Z,79.08
2022-10-05T08:49:24.016Z,73.16
2022-10-05T08:52:17.365Z,74.93
2022-10-05T08:55:16.000Z,77.32
2022-10-05T08:58:24.163Z,76.34
2022-10-05T09:00:57.291Z,68.55
2022-10-05T09:03:51.883Z,70.66
2022-10-05T09:06:52.980Z,68.85
2022-10-05T09:09:48.479Z,68.39
2022-10-05T09:12:34.158Z,69.52
2022-10-05T09:15:31.345Z,65.18
2022-10-05T09:18:26.513Z,62.08
2022-10-05T09:20:59.264Z,60.81
2022-10-05T09:23:38.079Z,61.74
2022-10-05T09:26:23.977Z,63.64
2022-10-05T09:29:02.859Z,62.51
2022-10-05T09:31:45.501Z,57.74
2022-10-05T09:34:47.780Z,55.70
2022-10-05T09:37:36.973Z,57.27
2022-10-05T09:40:23.559Z,56.33
2022-10-05T09:43:09.773Z,56.57
2022-10-05T09:46:04.554Z,58.28
2022-10-05T09:49:17.817Z,58.43
2022-10-05T09:52:18.991Z,59.99
2022-10-05T09:55:25.581Z,57.41
2022-10-05T09:58:20.364Z,62.28
2022-10-05T10:01:15.491Z,56.71
2022-10-05T10:04:08.077Z,53.38
2022-10-05T10:07:09.097Z,56.04
2022-10-05T10:09:43.489Z,59.80
2022-10-05T10:12:33.919Z,56.42
2022-10-05T10:15:23.902Z,65.96
2022-10-05T10:18:10.063Z,61.62
2022-10-05T10:20:53.130Z,62.94
2022-10-05T10:23:28.605Z,66.52
2022-10-05T10:26:28.180Z,61.47
2022-10-05T10:29:38.110Z,61.44
2022-10-05T10:32:13.592Z,57.78
2022-10-05T10:35:04.413Z,59.20
2022-10-05T10:38:22.155Z,53.85
2022-10-05T10:41:13.901Z,50.08
2022-10-05T10:43:55.359Z,50.50
2022-10-05T10:46:35.613Z,52.35
2022-10-05T10:49:07.600Z,51.02
2022-10-05T10:52:13.944Z,50.53
2022-10-05T10:55:13.877Z,56.47
2022-10-05T10:57:53.381Z,53.73
2022-10-05T11:00:30.042Z,51.05
2022-10-05T11:03:33.301Z,51.42
2022-10-05T11:06:27.378Z,51.92
2022-10-05T11:09:19.869Z,48.31
2022-10-05T11:12:23.083Z,47.63
2022-10-05T11:15:13.899Z,48.46
2022-10-05T11:18:02.854Z,51.76
2022-10-05T11:20:48.265Z,49.26
2022-10-05T11:23:38.791Z,48.48
2022-10-05T11:26:23.675Z,45.18
2022-10-05T11:29:21.017Z,47.53
2022-10-05T11:32:23.414Z,48.04
2022-10-05T11:35:39.355Z,45.62
2022-10-05T11:38:27.213Z,45.30
2022-10-05T11:41:24.482Z,45.15
2022-10-05T11:44:29.692Z,46.40
2022-10-05T11:47:01.581Z,44.65
2022-10-05T11:49:36.841Z,43.88
2022-10-05T11:52:12.598Z,44.61
2022-10-05T11:55:11.945Z,46.96
2022-10-05T11:57:47.451Z,45.04
2022-10-05T12:00:18.776Z,43.46
2022-10-05T12:03:12.402Z,44.14
2022-10-05T12:05:50.890Z,44.63
2022-10-05T12:08:29.213Z,46.42
2022-10-05T12:11:10.048Z,46.25
2022-10-05T12:13:42.034Z,44.25
2022-10-05T12:16:14.365Z,43.16
2022-10-05T12:18:47.982Z,44.13
2022-10-05T12:21:24.325Z,42.68
2022-10-05T12:23:54.980Z,43.22
2022-10-05T12:26:27.422Z,44.19
2022-10-05T12:29:00.134Z,41.73
2022-10-05T12:31:38.609Z,42.04
2022-10-05T12:34:13.181Z,41.68
2022-10-05T12:37:03.466Z,42.81
2022-10-05T12:39:40.129Z,41.01
2022-10-05T12:42:19.648Z,42.81
2022-10-05T12:45:04.513Z,39.89
2022-10-05T12:47:38.944Z,41.41
2022-10-05T12:50:21.086Z,40.89
2022-10-05T12:53:01.827Z,40.92
2022-10-05T12:55:34.911Z,42.87
2022-10-05T12:58:17.011Z,40.51
2022-10-05T13:00:51.756Z,38.67
2022-10-05T13:03:26.472Z,40.72
2022-10-05T13:06:04.355Z,40.95
2022-10-05T13:08:38.043Z,39.80
2022-10-05T13:11:14.850Z,40.02
2022-10-05T13:13:50.710Z,39.20
2022-10-05T13:16:26.374Z,40.00
2022-10-05T13:19:03.614Z,39.34
2022-10-05T13:21:47.287Z,38.75
2022-10-05T13:24:19.444Z,38.42
2022-10-05T13:26:50.669Z,39.63
2022-10-05T13:29:27.043Z,39.42
2022-10-05T13:31:57.526Z,40.19
2022-10-05T13:34:30.472Z,39.79
2022-10-05T13:37:06.965Z,39.48
2022-10-05T13:39:46.698Z,37.00
2022-10-05T13:42:17.382Z,36.58
2022-10-05T13:44:51.221Z,37.06
2022-10-05T13:47:26.692Z,35.74
2022-10-05T13:49:57.866Z,36.68
2022-10-05T13:52:32.123Z,39.98
2022-10-05T13:55:06.623Z,38.86
2022-10-05T13:57:46.059Z,36.10
2022-10-05T14:00:22.604Z,37.81
2022-10-05T14:02:57.012Z,38.72
2022-10-05T14:05:26.938Z,37.35
2022-10-05T14:07:57.066Z,37.97
2022-10-05T14:10:38.265Z,41.00
2022-10-05T14:13:22.422Z,37.62
2022-10-05T14:16:04.531Z,37.09
2022-10-05T14:18:34.548Z,36.23
2022-10-05T14:21:05.672Z,35.42
2022-10-05T14:23:34.719Z,35.88
2022-10-05T14:26:04.553Z,35.48
2022-10-05T14:28:34.605Z,35.36
2022-10-05T14:31:13.300Z,35.34
2022-10-05T14:33:42.210Z,35.60
2022-10-05T14:36:13.323Z,35.63
2022-10-05T14:38:53.080Z,37.77
2022-10-05T14:41:24.903Z,37.43
2022-10-05T14:43:56.058Z,36.00
2022-10-05T14:46:29.115Z,36.27
2022-10-05T14:49:14.332Z,36.99
2022-10-05T14:51:43.211Z,37.57
2022-10-05T14:54:27.435Z,37.70
2022-10-05T14:57:02.426Z,37.85
2022-10-05T15:00:00.580Z,38.39
2022-10-05T15:02:47.933Z,37.96
2022-10-05T15:05:18.789Z,38.89
2022-10-05T15:07:50.206Z,40.13
2022-10-05T15:10:36.124Z,39.82
2022-10-05T15:13:11.803Z,38.70
2022-10-05T15:15:44.909Z,38.81
2022-10-05T15:18:30.974Z,39.29
2022-10-05T15:21:13.457Z,39.58
2022-10-05T15:23:47.322Z,40.03
2022-10-05T15:26:26.786Z,40.90
2022-10-05T15:28:57.616Z,40.77
2022-10-05T15:31:31.770Z,40.56
2022-10-05T15:34:04.528Z,40.70
2022-10-05T15:36:36.619Z,40.66
2022-10-05T15:39:10.585Z,41.08
2022-10-05T15:41:58.845Z,41.50
2022-10-05T15:44:41.693Z,41.72
2022-10-05T15:47:18.041Z,42.62
2022-10-05T15:49:57.245Z,41.96
2022-10-05T15:52:28.712Z,42.37
2022-10-05T15:55:22.149Z,43.20
2022-10-05T15:57:55.717Z,43.07
2022-10-05T16:00:25.426Z,43.86
2022-10-05T16:02:59.206Z,43.81
2022-10-05T16:05:53.718Z,43.70
2022-10-05T16:08:55.017Z,43.42
2022-10-05T16:11:38.664Z,43.55
2022-10-05T16:14:18.291Z,44.77
2022-10-05T16:16:54.320Z,47.33
2022-10-05T16:19:26.885Z,51.66
2022-10-05T16:22:03.672Z,51.18
2022-10-05T16:24:51.671Z,51.81
2022-10-05T16:27:24.644Z,49.56
2022-10-05T16:30:00.868Z,49.64
2022-10-05T16:32:33.638Z,49.45
2022-10-05T16:35:14.569Z,50.39
2022-10-05T16:37:50.535Z,50.27
2022-10-05T16:40:28.377Z,50.68
2022-10-05T16:43:04.040Z,51.21
2022-10-05T16:45:46.008Z,51.06
2022-10-05T16:48:22.112Z,52.00
2022-10-05T16:50:58.988Z,56.07
2022-10-05T16:53:31.813Z,65.83
2022-10-05T16:56:03.269Z,69.16
2022-10-05T16:58:42.329Z,70.49
2022-10-05T17:01:17.668Z,81.84
2022-10-05T17:03:55.060Z,79.26
2022-10-05T17:06:38.102Z,81.63
2022-10-05T17:09:28.506Z,78.93
2022-10-05T17:12:06.675Z,76.53
2022-10-05T17:14:40.837Z,75.88
2022-10-05T17:17:37.473Z,79.73
2022-10-05T17:20:18.970Z,80.26
2022-10-05T17:22:52.294Z,79.29
2022-10-05T17:25:28.682Z,77.72
2022-10-05T17:27:58.497Z,76.54
2022-10-05T17:30:51.457Z,81.17
2022-10-05T17:33:27.464Z,83.32
2022-10-05T17:36:16.922Z,86.37
2022-10-05T17:38:50.714Z,87.58
2022-10-05T17:41:22.705Z,90.61
2022-10-05T17:44:24.552Z,91.26
2022-10-05T17:46:57.569Z,97.93
2022-10-05T17:50:14.284Z,98.40
2022-10-05T17:53:02.459Z,100.00
2022-10-05T17:55:44.273Z,99.80
2022-10-05T17:59:01.289Z,100.00
2022-10-05T18:01:33.917Z,100.00
2022-10-05T18:04:30.400Z,100.00
2022-10-05T18:07:04.733Z,100.00
2022-10-05T18:09:37.699Z,100.00
2022-10-05T18:12:48.810Z,100.00
2022-10-05T18:15:46.089Z,100.00
2022-10-05T18:18:47.946Z,100.00
2022-10-05T18:21:40.397Z,100.00
2022-10-05T18:24:44.243Z,100.00
2022-10-05T18:27:34.237Z,100.00
2022-10-05T18:30:08.724Z,100.00
2022-10-05T18:32:50.976Z,100.00
2022-10-05T18:35:23.027Z,100.00
2022-10-05T18:38:02.871Z,100.00
2022-10-05T18:40:40.807Z,100.00
2022-10-05T18:43:22.210Z,100.00
2022-10-05T18:46:01.406Z,100.00
2022-10-05T18:48:37.275Z,100.00
2022-10-05T18:51:13.884Z,100.00
2022-10-05T18:53:47.046Z,100.00
2022-10-05T18:56:21.777Z,100.00
2022-10-05T18:59:00.395Z,100.00
2022-10-05T19:01:52.282Z,100.00
2022-10-05T19:07:29.015Z,100.00
2022-10-05T19:10:05.980Z,100.00
2022-10-05T19:12:44.263Z,100.00
2022-10-05T19:15:20.389Z,100.00
2022-10-05T19:18:05.486Z,100.00
2022-10-05T19:20:37.541Z,100.00
2022-10-05T19:23:17.933Z,100.00
2022-10-05T19:25:51.507Z,100.00
2022-10-05T19:28:27.342Z,100.00
2022-10-05T19:31:02.828Z,100.00
2022-10-05T19:33:34.655Z,100.00
2022-10-05T19:36:25.640Z,100.00
2022-10-05T19:39:03.359Z,100.00
2022-10-05T19:41:45.300Z,100.00
2022-10-05T19:44:19.365Z,100.00
2022-10-05T19:46:55.554Z,100.00
2022-10-05T19:49:37.565Z,100.00
2022-10-05T19:52:12.955Z,100.00
2022-10-05T19:54:42.627Z,100.00
2022-10-05T19:57:18.093Z,100.00
2022-10-05T19:59:47.748Z,100.00
2022-10-05T20:02:17.575Z,100.00
2022-10-05T20:04:49.609Z,100.00
2022-10-05T20:07:21.510Z,100.00
2022-10-05T20:09:52.946Z,100.00
2022-10-05T20:12:23.616Z,100.00
2022-10-05T20:15:22.677Z,100.00
2022-10-05T20:18:08.527Z,100.00
2022-10-05T20:20:41.636Z,100.00
2022-10-05T20:23:25.332Z,100.00
2022-10-05T20:26:11.400Z,100.00
2022-10-05T20:28:41.048Z,100.00
2022-10-05T20:31:09.498Z,100.00
2022-10-05T20:33:39.051Z,100.00
2022-10-05T20:36:08.619Z,100.00
2022-10-05T20:38:40.876Z,100.00
2022-10-05T20:41:10.147Z,100.00
2022-10-05T20:43:39.384Z,100.00
2022-10-05T20:46:09.131Z,100.00
2022-10-05T20:48:37.395Z,100.00
2022-10-05T20:51:05.797Z,100.00
2022-10-05T20:53:34.699Z,100.00
2022-10-05T20:56:04.424Z,100.00
2022-10-05T20:58:32.664Z,100.00
2022-10-05T21:01:20.063Z,100.00
2022-10-05T21:03:50.595Z,100.00
2022-10-05T21:06:19.016Z,100.00
2022-10-05T21:08:47.366Z,100.00
2022-10-05T21:11:15.777Z,100.00
2022-10-05T21:13:45.662Z,100.00
2022-10-05T21:16:15.566Z,100.00
2022-10-05T21:18:46.780Z,100.00
2022-10-05T21:21:17.627Z,100.00
2022-10-05T21:23:45.933Z,100.00
2022-10-05T21:26:15.041Z,100.00
2022-10-05T21:28:43.559Z,100.00
2022-10-05T21:31:11.925Z,100.00
2022-10-05T21:33:40.182Z,100.00
2022-10-05T21:36:08.502Z,100.00
2022-10-05T21:38:38.091Z,100.00
2022-10-05T21:41:07.674Z,100.00
2022-10-05T21:43:36.053Z,100.00
2022-10-05T21:46:04.432Z,100.00
2022-10-05T21:48:33.621Z,100.00
2022-10-05T21:51:02.623Z,100.00
2022-10-05T21:53:32.979Z,100.00
2022-10-05T21:56:05.498Z,100.00
2022-10-05T21:58:33.769Z,100.00
2022-10-05T22:01:02.042Z,100.00
2022-10-05T22:03:30.441Z,100.00
2022-10-05T22:05:58.743Z,100.00
2022-10-05T22:08:30.010Z,100.00
2022-10-05T22:10:59.173Z,100.00
2022-10-05T22:13:29.194Z,100.00
2022-10-05T22:15:57.756Z,100.00
2022-10-05T22:18:26.971Z,100.00
2022-10-05T22:20:55.490Z,100.00
2022-10-05T22:23:23.707Z,100.00
2022-10-05T22:25:51.968Z,100.00
2022-10-05T22:28:20.323Z,100.00
2022-10-05T22:30:49.921Z,100.00
2022-10-05T22:33:18.151Z,100.00
2022-10-05T22:35:46.689Z,100.00
2022-10-05T22:38:15.026Z,100.00
2022-10-05T22:40:43.257Z,100.00
2022-10-05T22:43:13.118Z,100.00
2022-10-05T22:45:41.454Z,100.00
2022-10-05T22:48:11.116Z,100.00
2022-10-05T22:50:39.662Z,100.00
2022-10-05T22:53:07.976Z,100.00
2022-10-05T22:55:36.204Z,100.00
2022-10-05T22:58:04.441Z,100.00
2022-10-05T23:00:56.339Z,100.00
2022-10-05T23:03:22.895Z,100.00
2022-10-05T23:05:57.361Z,100.00
2022-10-05T23:08:26.225Z,100.00
2022-10-05T23:10:54.731Z,100.00
2022-10-05T23:13:23.449Z,100.00
2022-10-05T23:15:51.692Z,100.00
2022-10-05T23:18:19.906Z,100.00
2022-10-05T23:20:55.346Z,100.00
2022-10-05T23:23:24.047Z,100.00
2022-10-05T23:25:53.015Z,100.00
2022-10-05T23:28:21.652Z,100.00
2022-10-05T23:30:49.939Z,100.00
2022-10-05T23:33:18.233Z,100.00
2022-10-05T23:35:46.474Z,100.00
2022-10-05T23:38:16.176Z,100.00
2022-10-05T23:40:47.444Z,100.00
2022-10-05T23:43:15.922Z,100.00
2022-10-05T23:45:45.643Z,100.00
2022-10-05T23:48:14.412Z,100.00
2022-10-05T23:50:43.983Z,100.00
2022-10-05T23:53:12.493Z,100.00
2022-10-05T23:55:42.672Z,100.00
2022-10-05T23:58:11.964Z,100.00
